sensor_id;sensor_type;location;lat;lon;timestamp;pressure;altitude;pressure_sealevel;temperature;humidity
2675;BME280;1347;42.122;24.746;2023-05-02T00:00:56;100027.94;;;12.67;96.78
2675;BME280;1347;42.122;24.746;2023-05-02T00:03:24;100024.94;;;12.75;95.58
2675;BME280;1347;42.122;24.746;2023-05-02T00:05:51;100028.19;;;12.84;94.97
2675;BME280;1347;42.122;24.746;2023-05-02T00:08:18;100030.16;;;12.84;94.67
2675;BME280;1347;42.122;24.746;2023-05-02T00:10:46;100032.91;;;12.84;94.32
2675;BME280;1347;42.122;24.746;2023-05-02T00:13:13;100032.91;;;12.84;94.37
2675;BME280;1347;42.122;24.746;2023-05-02T00:15:40;100036.63;;;12.69;94.95
2675;BME280;1347;42.122;24.746;2023-05-02T00:18:07;100036.94;;;12.64;94.95
2675;BME280;1347;42.122;24.746;2023-05-02T00:20:34;100045.28;;;12.44;95.80
2675;BME280;1347;42.122;24.746;2023-05-02T00:23:01;100044.19;;;12.49;95.81
2675;BME280;1347;42.122;24.746;2023-05-02T00:25:28;100040.75;;;12.56;95.31
2675;BME280;1347;42.122;24.746;2023-05-02T00:27:56;100040.38;;;12.57;95.40
2675;BME280;1347;42.122;24.746;2023-05-02T00:30:23;100035.78;;;12.65;95.11
2675;BME280;1347;42.122;24.746;2023-05-02T00:32:50;100040.22;;;12.73;94.83
2675;BME280;1347;42.122;24.746;2023-05-02T00:35:18;100045.72;;;12.73;94.10
2675;BME280;1347;42.122;24.746;2023-05-02T00:37:45;100049.25;;;12.73;93.77
2675;BME280;1347;42.122;24.746;2023-05-02T00:40:13;100053.88;;;12.66;94.51
2675;BME280;1347;42.122;24.746;2023-05-02T00:42:40;100056.56;;;12.62;94.69
2675;BME280;1347;42.122;24.746;2023-05-02T00:45:09;100051.53;;;12.68;93.99
2675;BME280;1347;42.122;24.746;2023-05-02T00:47:36;100053.50;;;12.67;93.98
2675;BME280;1347;42.122;24.746;2023-05-02T00:50:04;100051.91;;;12.66;94.03
2675;BME280;1347;42.122;24.746;2023-05-02T00:52:32;100050.22;;;12.58;94.47
2675;BME280;1347;42.122;24.746;2023-05-02T00:55:00;100048.63;;;12.57;94.39
2675;BME280;1347;42.122;24.746;2023-05-02T00:57:27;100056.41;;;12.51;95.00
2675;BME280;1347;42.122;24.746;2023-05-02T00:59:54;100056.81;;;12.53;95.16
2675;BME280;1347;42.122;24.746;2023-05-02T01:02:31;100053.69;;;12.55;94.65
2675;BME280;1347;42.122;24.746;2023-05-02T01:05:10;100060.72;;;12.52;94.38
2675;BME280;1347;42.122;24.746;2023-05-02T01:07:53;100066.47;;;12.44;94.69
2675;BME280;1347;42.122;24.746;2023-05-02T01:10:31;100065.69;;;12.43;94.94
2675;BME280;1347;42.122;24.746;2023-05-02T01:13:06;100068.34;;;12.36;94.81
2675;BME280;1347;42.122;24.746;2023-05-02T01:15:36;100069.19;;;12.40;94.63
2675;BME280;1347;42.122;24.746;2023-05-02T01:18:08;100060.56;;;12.42;94.65
2675;BME280;1347;42.122;24.746;2023-05-02T01:20:38;100067.97;;;12.38;95.15
2675;BME280;1347;42.122;24.746;2023-05-02T01:23:12;100079.22;;;12.29;95.37
2675;BME280;1347;42.122;24.746;2023-05-02T01:25:52;100069.03;;;12.30;94.99
2675;BME280;1347;42.122;24.746;2023-05-02T01:28:34;100075.16;;;12.23;95.39
2675;BME280;1347;42.122;24.746;2023-05-02T01:31:05;100073.53;;;12.19;96.03
2675;BME280;1347;42.122;24.746;2023-05-02T01:33:34;100075.50;;;12.18;95.84
2675;BME280;1347;42.122;24.746;2023-05-02T01:36:02;100075.22;;;12.04;96.49
2675;BME280;1347;42.122;24.746;2023-05-02T01:38:32;100070.72;;;11.54;98.09
2675;BME280;1347;42.122;24.746;2023-05-02T01:41:00;100067.19;;;11.34;99.18
2675;BME280;1347;42.122;24.746;2023-05-02T01:43:33;100067.31;;;11.41;99.29
2675;BME280;1347;42.122;24.746;2023-05-02T01:46:05;100072.44;;;11.62;98.09
2675;BME280;1347;42.122;24.746;2023-05-02T01:48:34;100069.22;;;11.56;97.16
2675;BME280;1347;42.122;24.746;2023-05-02T01:51:02;100077.72;;;11.51;97.31
2675;BME280;1347;42.122;24.746;2023-05-02T01:53:32;100077.00;;;11.54;96.71
2675;BME280;1347;42.122;24.746;2023-05-02T01:56:02;100076.53;;;11.49;95.48
2675;BME280;1347;42.122;24.746;2023-05-02T01:58:31;100071.22;;;11.40;96.28
2675;BME280;1347;42.122;24.746;2023-05-02T02:01:00;100071.81;;;11.30;95.46
2675;BME280;1347;42.122;24.746;2023-05-02T02:03:30;100076.72;;;11.40;94.96
2675;BME280;1347;42.122;24.746;2023-05-02T02:05:57;100076.69;;;11.01;95.53
2675;BME280;1347;42.122;24.746;2023-05-02T02:08:25;100084.63;;;10.87;95.35
2675;BME280;1347;42.122;24.746;2023-05-02T02:10:56;100079.41;;;10.82;95.94
2675;BME280;1347;42.122;24.746;2023-05-02T02:13:26;100078.78;;;10.89;95.34
2675;BME280;1347;42.122;24.746;2023-05-02T02:15:58;100072.66;;;10.80;95.72
2675;BME280;1347;42.122;24.746;2023-05-02T02:18:31;100075.97;;;10.69;96.33
2675;BME280;1347;42.122;24.746;2023-05-02T02:21:01;100075.34;;;10.60;96.92
2675;BME280;1347;42.122;24.746;2023-05-02T02:23:29;100074.22;;;10.61;96.79
2675;BME280;1347;42.122;24.746;2023-05-02T02:26:00;100074.25;;;10.81;96.28
2675;BME280;1347;42.122;24.746;2023-05-02T02:28:28;100068.56;;;10.89;95.73
2675;BME280;1347;42.122;24.746;2023-05-02T02:30:55;100073.72;;;10.91;95.97
2675;BME280;1347;42.122;24.746;2023-05-02T02:33:23;100082.72;;;10.91;95.92
2675;BME280;1347;42.122;24.746;2023-05-02T02:35:59;100080.47;;;10.78;97.25
2675;BME280;1347;42.122;24.746;2023-05-02T02:38:32;100077.53;;;10.86;97.01
2675;BME280;1347;42.122;24.746;2023-05-02T02:41:12;100076.69;;;10.66;99.15
2675;BME280;1347;42.122;24.746;2023-05-02T02:43:46;100083.69;;;10.32;100.00
2675;BME280;1347;42.122;24.746;2023-05-02T02:46:27;100084.53;;;10.05;100.00
2675;BME280;1347;42.122;24.746;2023-05-02T02:48:59;100086.28;;;9.97;100.00
2675;BME280;1347;42.122;24.746;2023-05-02T02:51:37;100089.63;;;9.91;100.00
2675;BME280;1347;42.122;24.746;2023-05-02T02:54:10;100087.16;;;9.86;100.00
2675;BME280;1347;42.122;24.746;2023-05-02T02:56:41;100093.44;;;9.86;100.00
2675;BME280;1347;42.122;24.746;2023-05-02T02:59:14;100094.97;;;9.72;100.00
2675;BME280;1347;42.122;24.746;2023-05-02T03:01:46;100096.03;;;9.67;100.00
2675;BME280;1347;42.122;24.746;2023-05-02T03:04:15;100108.38;;;9.61;100.00
2675;BME280;1347;42.122;24.746;2023-05-02T03:06:45;100099.75;;;9.47;100.00
2675;BME280;1347;42.122;24.746;2023-05-02T03:09:15;100105.38;;;9.38;100.00
2675;BME280;1347;42.122;24.746;2023-05-02T03:11:43;100106.09;;;9.35;100.00
2675;BME280;1347;42.122;24.746;2023-05-02T03:14:11;100102.28;;;9.40;100.00
2675;BME280;1347;42.122;24.746;2023-05-02T03:16:40;100104.81;;;9.45;100.00
2675;BME280;1347;42.122;24.746;2023-05-02T03:19:07;100108.56;;;9.68;100.00
2675;BME280;1347;42.122;24.746;2023-05-02T03:21:34;100112.94;;;9.57;100.00
2675;BME280;1347;42.122;24.746;2023-05-02T03:24:04;100118.38;;;9.41;100.00
2675;BME280;1347;42.122;24.746;2023-05-02T03:26:31;100115.47;;;9.50;100.00
2675;BME280;1347;42.122;24.746;2023-05-02T03:28:58;100120.56;;;9.36;100.00
2675;BME280;1347;42.122;24.746;2023-05-02T03:31:25;100126.84;;;9.24;100.00
2675;BME280;1347;42.122;24.746;2023-05-02T03:33:52;100126.88;;;9.12;100.00
2675;BME280;1347;42.122;24.746;2023-05-02T03:36:19;100131.69;;;9.03;100.00
2675;BME280;1347;42.122;24.746;2023-05-02T03:38:45;100135.09;;;9.00;100.00
2675;BME280;1347;42.122;24.746;2023-05-02T03:41:14;100132.22;;;9.08;100.00
2675;BME280;1347;42.122;24.746;2023-05-02T03:43:41;100133.25;;;9.16;100.00
2675;BME280;1347;42.122;24.746;2023-05-02T03:46:08;100133.78;;;9.34;100.00
2675;BME280;1347;42.122;24.746;2023-05-02T03:48:36;100139.00;;;9.39;100.00
2675;BME280;1347;42.122;24.746;2023-05-02T03:51:04;100146.41;;;9.38;100.00
2675;BME280;1347;42.122;24.746;2023-05-02T03:53:32;100146.97;;;9.44;100.00
2675;BME280;1347;42.122;24.746;2023-05-02T03:55:59;100156.44;;;9.46;100.00
2675;BME280;1347;42.122;24.746;2023-05-02T03:58:27;100152.41;;;9.16;100.00
2675;BME280;1347;42.122;24.746;2023-05-02T04:00:54;100152.94;;;9.34;100.00
2675;BME280;1347;42.122;24.746;2023-05-02T04:03:21;100156.28;;;9.15;100.00
2675;BME280;1347;42.122;24.746;2023-05-02T04:05:48;100154.69;;;9.02;100.00
2675;BME280;1347;42.122;24.746;2023-05-02T04:08:16;100158.09;;;8.99;100.00
2675;BME280;1347;42.122;24.746;2023-05-02T04:10:43;100163.56;;;9.11;100.00
2675;BME280;1347;42.122;24.746;2023-05-02T04:13:10;100167.44;;;9.10;100.00
2675;BME280;1347;42.122;24.746;2023-05-02T04:15:39;100171.31;;;9.21;100.00
2675;BME280;1347;42.122;24.746;2023-05-02T04:18:06;100172.31;;;9.29;100.00
2675;BME280;1347;42.122;24.746;2023-05-02T04:20:33;100173.91;;;9.30;100.00
2675;BME280;1347;42.122;24.746;2023-05-02T04:23:00;100167.75;;;9.33;100.00
2675;BME280;1347;42.122;24.746;2023-05-02T04:25:27;100183.66;;;9.55;100.00
2675;BME280;1347;42.122;24.746;2023-05-02T04:27:54;100174.81;;;9.46;100.00
2675;BME280;1347;42.122;24.746;2023-05-02T04:30:21;100178.53;;;9.53;100.00
2675;BME280;1347;42.122;24.746;2023-05-02T04:32:49;100175.50;;;9.71;100.00
2675;BME280;1347;42.122;24.746;2023-05-02T04:35:16;100183.34;;;9.84;100.00
2675;BME280;1347;42.122;24.746;2023-05-02T04:37:43;100181.16;;;9.90;100.00
2675;BME280;1347;42.122;24.746;2023-05-02T04:40:11;100187.63;;;9.97;100.00
2675;BME280;1347;42.122;24.746;2023-05-02T04:42:39;100179.66;;;10.20;100.00
2675;BME280;1347;42.122;24.746;2023-05-02T04:45:07;100181.13;;;10.46;100.00
2675;BME280;1347;42.122;24.746;2023-05-02T04:47:34;100179.63;;;10.64;100.00
2675;BME280;1347;42.122;24.746;2023-05-02T04:50:02;100177.53;;;10.57;100.00
2675;BME280;1347;42.122;24.746;2023-05-02T04:52:29;100175.91;;;10.72;100.00
2675;BME280;1347;42.122;24.746;2023-05-02T04:54:56;100183.78;;;10.89;100.00
2675;BME280;1347;42.122;24.746;2023-05-02T04:57:23;100180.06;;;10.82;100.00
2675;BME280;1347;42.122;24.746;2023-05-02T04:59:50;100187.75;;;10.92;100.00
2675;BME280;1347;42.122;24.746;2023-05-02T05:02:17;100180.84;;;11.14;100.00
2675;BME280;1347;42.122;24.746;2023-05-02T05:04:44;100184.06;;;11.35;99.56
2675;BME280;1347;42.122;24.746;2023-05-02T05:07:12;100185.94;;;11.50;98.36
2675;BME280;1347;42.122;24.746;2023-05-02T05:09:39;100187.22;;;11.72;97.17
2675;BME280;1347;42.122;24.746;2023-05-02T05:12:06;100187.91;;;11.85;96.18
2675;BME280;1347;42.122;24.746;2023-05-02T05:14:33;100193.25;;;11.77;96.24
2675;BME280;1347;42.122;24.746;2023-05-02T05:17:00;100195.78;;;11.86;95.79
2675;BME280;1347;42.122;24.746;2023-05-02T05:19:27;100196.13;;;12.23;94.23
2675;BME280;1347;42.122;24.746;2023-05-02T05:21:54;100193.53;;;12.30;93.42
2675;BME280;1347;42.122;24.746;2023-05-02T05:24:22;100192.34;;;12.12;95.00
2675;BME280;1347;42.122;24.746;2023-05-02T05:26:49;100202.34;;;12.20;94.55
2675;BME280;1347;42.122;24.746;2023-05-02T05:29:17;100199.66;;;12.24;94.06
2675;BME280;1347;42.122;24.746;2023-05-02T05:31:44;100198.63;;;12.32;94.63
2675;BME280;1347;42.122;24.746;2023-05-02T05:34:10;100203.75;;;12.33;94.12
2675;BME280;1347;42.122;24.746;2023-05-02T05:36:39;100204.84;;;12.48;94.27
2675;BME280;1347;42.122;24.746;2023-05-02T05:39:06;100209.81;;;12.62;92.62
2675;BME280;1347;42.122;24.746;2023-05-02T05:41:34;100209.22;;;12.52;92.45
2675;BME280;1347;42.122;24.746;2023-05-02T05:44:03;100207.72;;;12.78;92.03
2675;BME280;1347;42.122;24.746;2023-05-02T05:46:30;100222.56;;;12.96;91.75
2675;BME280;1347;42.122;24.746;2023-05-02T05:48:57;100224.16;;;12.97;91.06
2675;BME280;1347;42.122;24.746;2023-05-02T05:51:24;100224.25;;;13.27;88.63
2675;BME280;1347;42.122;24.746;2023-05-02T05:53:53;100220.19;;;13.44;88.05
2675;BME280;1347;42.122;24.746;2023-05-02T05:56:20;100220.09;;;13.96;86.91
2675;BME280;1347;42.122;24.746;2023-05-02T05:58:49;100222.78;;;14.56;86.38
2675;BME280;1347;42.122;24.746;2023-05-02T06:01:15;100225.22;;;15.05;83.86
2675;BME280;1347;42.122;24.746;2023-05-02T06:03:42;100230.53;;;15.32;81.61
2675;BME280;1347;42.122;24.746;2023-05-02T06:06:09;100229.22;;;15.66;79.60
2675;BME280;1347;42.122;24.746;2023-05-02T06:08:36;100229.63;;;15.14;79.86
2675;BME280;1347;42.122;24.746;2023-05-02T06:11:07;100225.16;;;15.53;79.86
2675;BME280;1347;42.122;24.746;2023-05-02T06:13:34;100222.47;;;15.64;79.02
2675;BME280;1347;42.122;24.746;2023-05-02T06:16:03;100230.00;;;15.67;77.47
2675;BME280;1347;42.122;24.746;2023-05-02T06:18:30;100229.00;;;16.03;78.23
2675;BME280;1347;42.122;24.746;2023-05-02T06:21:02;100232.72;;;16.57;76.31
2675;BME280;1347;42.122;24.746;2023-05-02T06:23:29;100228.44;;;16.77;73.70
2675;BME280;1347;42.122;24.746;2023-05-02T06:25:58;100233.59;;;16.79;73.57
2675;BME280;1347;42.122;24.746;2023-05-02T06:28:25;100229.63;;;16.98;74.27
2675;BME280;1347;42.122;24.746;2023-05-02T06:30:56;100228.03;;;16.93;74.19
2675;BME280;1347;42.122;24.746;2023-05-02T06:33:25;100228.78;;;17.54;71.46
2675;BME280;1347;42.122;24.746;2023-05-02T06:35:52;100224.06;;;17.47;71.26
2675;BME280;1347;42.122;24.746;2023-05-02T06:38:20;100230.28;;;18.01;70.75
2675;BME280;1347;42.122;24.746;2023-05-02T06:40:47;100225.50;;;18.05;69.53
2675;BME280;1347;42.122;24.746;2023-05-02T06:43:14;100224.34;;;17.95;71.21
2675;BME280;1347;42.122;24.746;2023-05-02T06:45:41;100212.94;;;18.56;69.19
2675;BME280;1347;42.122;24.746;2023-05-02T06:48:08;100218.22;;;18.95;67.17
2675;BME280;1347;42.122;24.746;2023-05-02T06:50:36;100212.19;;;18.48;66.96
2675;BME280;1347;42.122;24.746;2023-05-02T06:53:04;100217.25;;;17.84;69.67
2675;BME280;1347;42.122;24.746;2023-05-02T06:55:31;100219.59;;;17.92;68.78
2675;BME280;1347;42.122;24.746;2023-05-02T06:57:58;100219.22;;;17.90;67.59
2675;BME280;1347;42.122;24.746;2023-05-02T07:00:25;100219.19;;;17.94;67.91
2675;BME280;1347;42.122;24.746;2023-05-02T07:02:52;100216.22;;;18.36;65.84
2675;BME280;1347;42.122;24.746;2023-05-02T07:05:19;100202.81;;;18.87;64.79
2675;BME280;1347;42.122;24.746;2023-05-02T07:07:47;100211.38;;;19.10;63.43
2675;BME280;1347;42.122;24.746;2023-05-02T07:10:14;100203.81;;;19.55;63.01
2675;BME280;1347;42.122;24.746;2023-05-02T07:12:41;100211.53;;;20.42;60.14
2675;BME280;1347;42.122;24.746;2023-05-02T07:15:08;100219.47;;;20.10;56.06
2675;BME280;1347;42.122;24.746;2023-05-02T07:17:35;100218.25;;;20.45;54.98
2675;BME280;1347;42.122;24.746;2023-05-02T07:20:02;100213.19;;;20.90;53.17
2675;BME280;1347;42.122;24.746;2023-05-02T07:22:29;100206.88;;;21.36;50.16
2675;BME280;1347;42.122;24.746;2023-05-02T07:24:59;100208.03;;;21.12;48.76
2675;BME280;1347;42.122;24.746;2023-05-02T07:27:26;100204.81;;;21.80;48.58
2675;BME280;1347;42.122;24.746;2023-05-02T07:29:53;100211.34;;;21.73;45.05
2675;BME280;1347;42.122;24.746;2023-05-02T07:32:20;100210.91;;;21.75;46.14
2675;BME280;1347;42.122;24.746;2023-05-02T07:34:47;100202.72;;;21.44;45.73
2675;BME280;1347;42.122;24.746;2023-05-02T07:37:14;100199.59;;;21.62;46.26
2675;BME280;1347;42.122;24.746;2023-05-02T07:39:41;100193.38;;;21.94;45.08
2675;BME280;1347;42.122;24.746;2023-05-02T07:42:09;100197.69;;;22.18;45.46
2675;BME280;1347;42.122;24.746;2023-05-02T07:44:36;100196.75;;;23.26;43.70
2675;BME280;1347;42.122;24.746;2023-05-02T07:47:03;100187.59;;;22.93;43.26
2675;BME280;1347;42.122;24.746;2023-05-02T07:49:30;100183.88;;;24.15;41.97
2675;BME280;1347;42.122;24.746;2023-05-02T07:51:58;100184.44;;;23.68;41.79
2675;BME280;1347;42.122;24.746;2023-05-02T07:54:25;100185.88;;;24.14;42.16
2675;BME280;1347;42.122;24.746;2023-05-02T07:56:52;100182.91;;;24.72;41.65
2675;BME280;1347;42.122;24.746;2023-05-02T07:59:23;100179.78;;;25.30;40.89
2675;BME280;1347;42.122;24.746;2023-05-02T08:01:50;100173.41;;;25.29;39.90
2675;BME280;1347;42.122;24.746;2023-05-02T08:04:17;100189.00;;;26.09;38.86
2675;BME280;1347;42.122;24.746;2023-05-02T08:06:44;100172.97;;;25.96;36.74
2675;BME280;1347;42.122;24.746;2023-05-02T08:09:11;100181.28;;;26.53;36.23
2675;BME280;1347;42.122;24.746;2023-05-02T08:11:38;100176.38;;;26.13;36.62
2675;BME280;1347;42.122;24.746;2023-05-02T08:14:05;100163.66;;;27.29;34.42
2675;BME280;1347;42.122;24.746;2023-05-02T08:16:33;100169.00;;;28.42;32.50
2675;BME280;1347;42.122;24.746;2023-05-02T08:19:00;100162.72;;;27.23;32.81
2675;BME280;1347;42.122;24.746;2023-05-02T08:21:27;100170.69;;;26.26;33.12
2675;BME280;1347;42.122;24.746;2023-05-02T08:23:57;100159.25;;;27.00;32.57
2675;BME280;1347;42.122;24.746;2023-05-02T08:26:24;100172.53;;;29.17;30.81
2675;BME280;1347;42.122;24.746;2023-05-02T08:28:51;100156.28;;;31.24;29.84
2675;BME280;1347;42.122;24.746;2023-05-02T08:31:19;100158.47;;;31.14;27.73
2675;BME280;1347;42.122;24.746;2023-05-02T08:33:48;100164.50;;;30.52;27.74
2675;BME280;1347;42.122;24.746;2023-05-02T08:36:16;100154.59;;;27.89;29.47
2675;BME280;1347;42.122;24.746;2023-05-02T08:38:44;100149.56;;;27.83;29.52
2675;BME280;1347;42.122;24.746;2023-05-02T08:41:12;100148.28;;;29.11;28.88
2675;BME280;1347;42.122;24.746;2023-05-02T08:43:39;100151.09;;;28.87;29.36
2675;BME280;1347;42.122;24.746;2023-05-02T08:46:07;100146.41;;;30.99;27.56
2675;BME280;1347;42.122;24.746;2023-05-02T08:48:34;100143.22;;;34.36;25.27
2675;BME280;1347;42.122;24.746;2023-05-02T08:51:05;100146.16;;;36.03;24.37
2675;BME280;1347;42.122;24.746;2023-05-02T08:53:34;100147.50;;;35.97;23.25
2675;BME280;1347;42.122;24.746;2023-05-02T08:56:05;100143.47;;;35.40;23.30
2675;BME280;1347;42.122;24.746;2023-05-02T08:58:32;100133.56;;;34.66;24.03
2675;BME280;1347;42.122;24.746;2023-05-02T09:01:00;100137.44;;;35.90;23.48
2675;BME280;1347;42.122;24.746;2023-05-02T09:03:31;100127.38;;;36.73;22.98
2675;BME280;1347;42.122;24.746;2023-05-02T09:06:04;100147.53;;;40.18;20.46
2675;BME280;1347;42.122;24.746;2023-05-02T09:08:32;100137.81;;;40.00;19.60
2675;BME280;1347;42.122;24.746;2023-05-02T09:10:59;100119.28;;;40.50;19.56
2675;BME280;1347;42.122;24.746;2023-05-02T09:13:28;100122.44;;;38.05;19.89
2675;BME280;1347;42.122;24.746;2023-05-02T09:15:56;100115.16;;;32.80;23.38
2675;BME280;1347;42.122;24.746;2023-05-02T09:18:27;100103.19;;;31.44;24.14
2675;BME280;1347;42.122;24.746;2023-05-02T09:20:54;100099.22;;;33.75;23.18
2675;BME280;1347;42.122;24.746;2023-05-02T09:23:31;100102.22;;;33.33;23.44
2675;BME280;1347;42.122;24.746;2023-05-02T09:25:59;100112.88;;;35.82;21.61
2675;BME280;1347;42.122;24.746;2023-05-02T09:28:40;100105.41;;;38.97;19.89
2675;BME280;1347;42.122;24.746;2023-05-02T09:31:08;100086.50;;;33.59;22.19
2675;BME280;1347;42.122;24.746;2023-05-02T09:33:36;100092.13;;;36.11;20.89
2675;BME280;1347;42.122;24.746;2023-05-02T09:36:03;100079.38;;;35.00;22.17
2675;BME280;1347;42.122;24.746;2023-05-02T09:38:33;100081.63;;;36.25;20.75
2675;BME280;1347;42.122;24.746;2023-05-02T09:41:00;100072.03;;;34.13;22.80
2675;BME280;1347;42.122;24.746;2023-05-02T09:43:28;100085.84;;;34.95;21.65
2675;BME280;1347;42.122;24.746;2023-05-02T09:45:57;100077.47;;;36.26;20.58
2675;BME280;1347;42.122;24.746;2023-05-02T09:48:26;100074.72;;;34.97;20.98
2675;BME280;1347;42.122;24.746;2023-05-02T09:50:53;100066.06;;;37.49;20.06
2675;BME280;1347;42.122;24.746;2023-05-02T09:53:20;100065.34;;;38.39;20.10
2675;BME280;1347;42.122;24.746;2023-05-02T09:55:58;100076.34;;;41.24;18.83
2675;BME280;1347;42.122;24.746;2023-05-02T09:58:25;100059.03;;;36.27;20.64
2675;BME280;1347;42.122;24.746;2023-05-02T10:00:52;100067.00;;;39.00;19.00
2675;BME280;1347;42.122;24.746;2023-05-02T10:03:22;100054.22;;;37.58;19.93
2675;BME280;1347;42.122;24.746;2023-05-02T10:05:50;100055.88;;;34.71;21.12
2675;BME280;1347;42.122;24.746;2023-05-02T10:08:19;100063.03;;;35.00;21.28
2675;BME280;1347;42.122;24.746;2023-05-02T10:10:51;100044.94;;;37.71;20.69
2675;BME280;1347;42.122;24.746;2023-05-02T10:13:19;100059.72;;;37.75;19.68
2675;BME280;1347;42.122;24.746;2023-05-02T10:15:49;100053.44;;;33.68;21.73
2675;BME280;1347;42.122;24.746;2023-05-02T10:18:23;100053.50;;;32.92;22.38
2675;BME280;1347;42.122;24.746;2023-05-02T10:20:56;100042.31;;;32.71;22.57
2675;BME280;1347;42.122;24.746;2023-05-02T10:23:26;100046.09;;;34.56;21.76
2675;BME280;1347;42.122;24.746;2023-05-02T10:25:56;100032.63;;;38.48;20.38
2675;BME280;1347;42.122;24.746;2023-05-02T10:28:24;100046.66;;;40.00;19.42
2675;BME280;1347;42.122;24.746;2023-05-02T10:30:52;100045.78;;;41.06;18.75
2675;BME280;1347;42.122;24.746;2023-05-02T10:33:20;100041.41;;;39.91;18.48
2675;BME280;1347;42.122;24.746;2023-05-02T10:35:47;100036.03;;;35.54;20.73
2675;BME280;1347;42.122;24.746;2023-05-02T10:38:17;100030.38;;;37.37;19.93
2675;BME280;1347;42.122;24.746;2023-05-02T10:40:55;100035.47;;;36.88;20.47
2675;BME280;1347;42.122;24.746;2023-05-02T10:43:26;100032.16;;;34.47;21.58
2675;BME280;1347;42.122;24.746;2023-05-02T10:45:53;100026.28;;;34.97;22.11
2675;BME280;1347;42.122;24.746;2023-05-02T10:48:21;100032.47;;;38.01;20.63
2675;BME280;1347;42.122;24.746;2023-05-02T10:50:51;100014.38;;;39.66;19.39
2675;BME280;1347;42.122;24.746;2023-05-02T10:56:15;100020.47;;;39.08;19.86
2675;BME280;1347;42.122;24.746;2023-05-02T10:58:43;100020.06;;;36.29;20.30
2675;BME280;1347;42.122;24.746;2023-05-02T11:01:35;100016.88;;;36.57;20.42
2675;BME280;1347;42.122;24.746;2023-05-02T11:04:10;100002.88;;;37.34;20.04
2675;BME280;1347;42.122;24.746;2023-05-02T11:07:16;100014.91;;;33.44;21.80
2675;BME280;1347;42.122;24.746;2023-05-02T11:09:43;100015.63;;;33.22;22.42
2675;BME280;1347;42.122;24.746;2023-05-02T11:12:43;100006.34;;;33.33;22.42
2675;BME280;1347;42.122;24.746;2023-05-02T11:15:12;100007.50;;;31.08;23.42
2675;BME280;1347;42.122;24.746;2023-05-02T11:17:59;100010.00;;;30.05;24.53
2675;BME280;1347;42.122;24.746;2023-05-02T11:20:27;100009.88;;;29.49;24.77
2675;BME280;1347;42.122;24.746;2023-05-02T11:22:59;99997.91;;;30.04;24.24
2675;BME280;1347;42.122;24.746;2023-05-02T11:25:48;99993.75;;;29.99;25.01
2675;BME280;1347;42.122;24.746;2023-05-02T11:28:44;100007.91;;;28.16;26.00
2675;BME280;1347;42.122;24.746;2023-05-02T11:34:24;99983.03;;;27.21;27.06
2675;BME280;1347;42.122;24.746;2023-05-02T11:36:51;99971.94;;;28.35;26.98
2675;BME280;1347;42.122;24.746;2023-05-02T11:39:18;99988.19;;;29.32;25.21
2675;BME280;1347;42.122;24.746;2023-05-02T11:41:46;99979.44;;;28.38;26.02
2675;BME280;1347;42.122;24.746;2023-05-02T11:44:16;99970.63;;;28.12;26.50
2675;BME280;1347;42.122;24.746;2023-05-02T11:46:43;99960.66;;;28.59;27.06
2675;BME280;1347;42.122;24.746;2023-05-02T11:49:11;99967.75;;;29.07;25.46
2675;BME280;1347;42.122;24.746;2023-05-02T11:51:38;99954.53;;;28.99;26.17
2675;BME280;1347;42.122;24.746;2023-05-02T11:54:06;99975.94;;;29.05;25.57
2675;BME280;1347;42.122;24.746;2023-05-02T11:56:33;99959.16;;;29.02;25.43
2675;BME280;1347;42.122;24.746;2023-05-02T11:59:01;99944.19;;;27.86;26.64
2675;BME280;1347;42.122;24.746;2023-05-02T12:01:29;99952.47;;;29.58;26.32
2675;BME280;1347;42.122;24.746;2023-05-02T12:04:03;99944.16;;;30.85;25.15
2675;BME280;1347;42.122;24.746;2023-05-02T12:06:31;99934.72;;;28.45;26.91
2675;BME280;1347;42.122;24.746;2023-05-02T12:09:09;99934.03;;;30.12;25.54
2675;BME280;1347;42.122;24.746;2023-05-02T12:11:36;99942.38;;;30.62;24.82
2675;BME280;1347;42.122;24.746;2023-05-02T12:14:03;99935.84;;;31.59;24.67
2675;BME280;1347;42.122;24.746;2023-05-02T12:16:32;99932.88;;;32.70;22.87
2675;BME280;1347;42.122;24.746;2023-05-02T12:19:00;99936.66;;;29.81;25.60
2675;BME280;1347;42.122;24.746;2023-05-02T12:21:27;99927.94;;;31.37;24.61
2675;BME280;1347;42.122;24.746;2023-05-02T12:23:57;99916.44;;;30.63;24.49
2675;BME280;1347;42.122;24.746;2023-05-02T12:26:25;99916.75;;;31.54;23.66
2675;BME280;1347;42.122;24.746;2023-05-02T12:28:55;99903.50;;;28.87;24.94
2675;BME280;1347;42.122;24.746;2023-05-02T12:31:23;99904.09;;;30.06;24.62
2675;BME280;1347;42.122;24.746;2023-05-02T12:33:52;99908.09;;;31.32;24.61
2675;BME280;1347;42.122;24.746;2023-05-02T12:36:22;99898.00;;;32.05;23.39
2675;BME280;1347;42.122;24.746;2023-05-02T12:38:49;99891.56;;;32.04;23.77
2675;BME280;1347;42.122;24.746;2023-05-02T12:41:18;99886.72;;;31.36;24.46
2675;BME280;1347;42.122;24.746;2023-05-02T12:43:47;99877.91;;;31.29;24.19
2675;BME280;1347;42.122;24.746;2023-05-02T12:46:15;99881.97;;;32.61;22.81
2675;BME280;1347;42.122;24.746;2023-05-02T12:48:42;99875.59;;;33.11;22.57
2675;BME280;1347;42.122;24.746;2023-05-02T12:51:21;99871.38;;;32.45;22.63
2675;BME280;1347;42.122;24.746;2023-05-02T12:53:49;99857.69;;;27.77;25.88
2675;BME280;1347;42.122;24.746;2023-05-02T12:56:16;99852.31;;;29.59;25.17
2675;BME280;1347;42.122;24.746;2023-05-02T12:58:44;99858.88;;;31.66;24.33
2675;BME280;1347;42.122;24.746;2023-05-02T13:01:12;99865.66;;;31.80;23.64
2675;BME280;1347;42.122;24.746;2023-05-02T13:03:40;99855.53;;;31.05;24.15
2675;BME280;1347;42.122;24.746;2023-05-02T13:06:07;99845.81;;;30.08;24.62
2675;BME280;1347;42.122;24.746;2023-05-02T13:08:35;99855.66;;;31.90;23.57
2675;BME280;1347;42.122;24.746;2023-05-02T13:11:02;99851.59;;;33.45;22.52
2675;BME280;1347;42.122;24.746;2023-05-02T13:13:30;99852.06;;;33.49;21.86
2675;BME280;1347;42.122;24.746;2023-05-02T13:15:57;99847.06;;;31.73;23.04
2675;BME280;1347;42.122;24.746;2023-05-02T13:18:24;99847.00;;;30.22;24.72